sensor_id;sensor_type;location;lat;lon;timestamp;pressure;altitude;pressure_sealevel;temperature;humidity
31337;BME280;22846;42.654;23.314;2023-10-31T00:01:26;94724.34;;;25.88;46.69
31337;BME280;22846;42.654;23.314;2023-10-31T00:03:51;94715.50;;;25.84;46.71
31337;BME280;22846;42.654;23.314;2023-10-31T00:06:17;94724.03;;;25.86;47.27
31337;BME280;22846;42.654;23.314;2023-10-31T00:08:42;94728.72;;;25.86;47.16
31337;BME280;22846;42.654;23.314;2023-10-31T00:11:08;94720.84;;;25.88;47.04
31337;BME280;22846;42.654;23.314;2023-10-31T00:13:33;94727.06;;;25.88;47.14
31337;BME280;22846;42.654;23.314;2023-10-31T00:15:58;94720.09;;;25.87;47.35
31337;BME280;22846;42.654;23.314;2023-10-31T00:18:24;94700.84;;;25.78;47.11
31337;BME280;22846;42.654;23.314;2023-10-31T00:20:49;94716.91;;;25.89;47.10
31337;BME280;22846;42.654;23.314;2023-10-31T00:23:15;94709.25;;;25.84;47.16
31337;BME280;22846;42.654;23.314;2023-10-31T00:25:40;94710.34;;;25.86;47.34
31337;BME280;22846;42.654;23.314;2023-10-31T00:28:05;94719.31;;;25.87;47.23
31337;BME280;22846;42.654;23.314;2023-10-31T00:30:31;94707.75;;;25.83;46.75
31337;BME280;22846;42.654;23.314;2023-10-31T00:32:56;94713.09;;;25.86;46.77
31337;BME280;22846;42.654;23.314;2023-10-31T00:35:22;94693.53;;;25.75;47.16
31337;BME280;22846;42.654;23.314;2023-10-31T00:37:47;94706.81;;;25.86;47.21
31337;BME280;22846;42.654;23.314;2023-10-31T00:40:12;94704.53;;;25.84;47.12
31337;BME280;22846;42.654;23.314;2023-10-31T00:42:39;94703.34;;;25.85;46.87
31337;BME280;22846;42.654;23.314;2023-10-31T00:45:06;94697.09;;;25.85;47.57
31337;BME280;22846;42.654;23.314;2023-10-31T00:47:32;94690.19;;;25.80;46.71
31337;BME280;22846;42.654;23.314;2023-10-31T00:49:58;94703.00;;;25.83;47.15
31337;BME280;22846;42.654;23.314;2023-10-31T00:52:23;94690.06;;;25.84;46.83
31337;BME280;22846;42.654;23.314;2023-10-31T00:54:49;94690.19;;;25.80;47.06
31337;BME280;22846;42.654;23.314;2023-10-31T00:57:14;94684.44;;;25.78;47.24
31337;BME280;22846;42.654;23.314;2023-10-31T00:59:39;94687.34;;;25.84;47.39
31337;BME280;22846;42.654;23.314;2023-10-31T01:02:05;94693.59;;;25.84;47.34
31337;BME280;22846;42.654;23.314;2023-10-31T01:04:30;94673.16;;;25.76;47.36
31337;BME280;22846;42.654;23.314;2023-10-31T01:06:56;94677.63;;;25.83;46.97
31337;BME280;22846;42.654;23.314;2023-10-31T01:09:22;94675.75;;;25.80;47.37
31337;BME280;22846;42.654;23.314;2023-10-31T01:11:47;94685.84;;;25.83;47.67
31337;BME280;22846;42.654;23.314;2023-10-31T01:14:13;94683.09;;;25.83;47.44
31337;BME280;22846;42.654;23.314;2023-10-31T01:16:40;94672.56;;;25.81;47.50
31337;BME280;22846;42.654;23.314;2023-10-31T01:19:05;94671.38;;;25.82;47.76
31337;BME280;22846;42.654;23.314;2023-10-31T01:21:31;94682.31;;;25.82;47.29
31337;BME280;22846;42.654;23.314;2023-10-31T01:23:58;94679.56;;;25.82;47.25
31337;BME280;22846;42.654;23.314;2023-10-31T01:26:24;94656.94;;;25.69;47.46
31337;BME280;22846;42.654;23.314;2023-10-31T01:28:49;94658.69;;;25.76;46.99
31337;BME280;22846;42.654;23.314;2023-10-31T01:31:14;94659.00;;;25.78;47.70
31337;BME280;22846;42.654;23.314;2023-10-31T01:33:40;94662.53;;;25.78;47.38
31337;BME280;22846;42.654;23.314;2023-10-31T01:36:05;94662.81;;;25.80;47.40
31337;BME280;22846;42.654;23.314;2023-10-31T01:38:31;94650.03;;;25.77;46.73
31337;BME280;22846;42.654;23.314;2023-10-31T01:40:56;94655.81;;;25.79;46.81
31337;BME280;22846;42.654;23.314;2023-10-31T01:43:36;94657.06;;;25.78;46.99
31337;BME280;22846;42.654;23.314;2023-10-31T01:46:02;94654.00;;;25.76;47.38
31337;BME280;22846;42.654;23.314;2023-10-31T01:48:30;94654.84;;;25.73;47.63
31337;BME280;22846;42.654;23.314;2023-10-31T01:50:57;94661.75;;;25.78;47.34
31337;BME280;22846;42.654;23.314;2023-10-31T01:53:24;94639.13;;;25.65;47.27
31337;BME280;22846;42.654;23.314;2023-10-31T01:55:51;94661.00;;;25.77;47.07
31337;BME280;22846;42.654;23.314;2023-10-31T01:58:19;94654.75;;;25.77;47.36
31337;BME280;22846;42.654;23.314;2023-10-31T02:00:46;94656.72;;;25.76;47.03
31337;BME280;22846;42.654;23.314;2023-10-31T02:03:12;94643.25;;;25.69;47.63
31337;BME280;22846;42.654;23.314;2023-10-31T02:05:38;94649.38;;;25.73;47.28
31337;BME280;22846;42.654;23.314;2023-10-31T02:08:05;94646.97;;;25.75;47.03
31337;BME280;22846;42.654;23.314;2023-10-31T02:10:33;94636.88;;;25.72;47.32
31337;BME280;22846;42.654;23.314;2023-10-31T02:13:10;94638.78;;;25.75;47.22
31337;BME280;22846;42.654;23.314;2023-10-31T02:15:35;94637.56;;;25.76;47.72
31337;BME280;22846;42.654;23.314;2023-10-31T02:18:01;94636.03;;;25.75;47.39
31337;BME280;22846;42.654;23.314;2023-10-31T02:20:26;94648.16;;;25.74;47.06
31337;BME280;22846;42.654;23.314;2023-10-31T02:22:52;94625.63;;;25.70;46.88
31337;BME280;22846;42.654;23.314;2023-10-31T02:25:17;94635.22;;;25.75;47.47
31337;BME280;22846;42.654;23.314;2023-10-31T02:27:43;94621.25;;;25.73;47.20
31337;BME280;22846;42.654;23.314;2023-10-31T02:30:09;94622.13;;;25.70;47.28
31337;BME280;22846;42.654;23.314;2023-10-31T02:32:34;94624.41;;;25.71;47.48
31337;BME280;22846;42.654;23.314;2023-10-31T02:35:00;94631.88;;;25.71;46.09
31337;BME280;22846;42.654;23.314;2023-10-31T02:37:25;94630.34;;;25.70;46.40
31337;BME280;22846;42.654;23.314;2023-10-31T02:39:51;94631.09;;;25.70;46.91
31337;BME280;22846;42.654;23.314;2023-10-31T02:42:16;94625.63;;;25.70;46.82
31337;BME280;22846;42.654;23.314;2023-10-31T02:44:42;94623.97;;;25.73;47.88
31337;BME280;22846;42.654;23.314;2023-10-31T02:47:07;94625.19;;;25.72;47.89
31337;BME280;22846;42.654;23.314;2023-10-31T02:49:32;94619.38;;;25.70;48.23
31337;BME280;22846;42.654;23.314;2023-10-31T02:51:58;94629.00;;;25.74;48.28
31337;BME280;22846;42.654;23.314;2023-10-31T02:54:23;94627.59;;;25.70;47.86
31337;BME280;22846;42.654;23.314;2023-10-31T02:56:49;94633.41;;;25.72;48.40
31337;BME280;22846;42.654;23.314;2023-10-31T02:59:14;94632.19;;;25.73;48.12
31337;BME280;22846;42.654;23.314;2023-10-31T03:01:39;94633.72;;;25.74;48.10
31337;BME280;22846;42.654;23.314;2023-10-31T03:04:05;94638.41;;;25.73;47.84
31337;BME280;22846;42.654;23.314;2023-10-31T03:06:30;94634.59;;;25.71;48.07
31337;BME280;22846;42.654;23.314;2023-10-31T03:08:56;94627.13;;;25.71;48.28
31337;BME280;22846;42.654;23.314;2023-10-31T03:11:26;94635.69;;;25.73;47.93
31337;BME280;22846;42.654;23.314;2023-10-31T03:13:52;94635.34;;;25.71;48.53
31337;BME280;22846;42.654;23.314;2023-10-31T03:16:18;94641.16;;;25.73;48.07
31337;BME280;22846;42.654;23.314;2023-10-31T03:18:45;94634.94;;;25.73;48.47
31337;BME280;22846;42.654;23.314;2023-10-31T03:21:11;94628.66;;;25.72;47.88
31337;BME280;22846;42.654;23.314;2023-10-31T03:23:36;94624.41;;;25.71;48.20
31337;BME280;22846;42.654;23.314;2023-10-31T03:26:02;94623.97;;;25.73;48.70
31337;BME280;22846;42.654;23.314;2023-10-31T03:28:27;94622.44;;;25.72;48.29
31337;BME280;22846;42.654;23.314;2023-10-31T03:30:53;94619.72;;;25.72;48.28
31337;BME280;22846;42.654;23.314;2023-10-31T03:33:18;94613.59;;;25.68;48.24
31337;BME280;22846;42.654;23.314;2023-10-31T03:35:44;94610.09;;;25.67;48.34
31337;BME280;22846;42.654;23.314;2023-10-31T03:38:10;94605.06;;;25.66;48.13
31337;BME280;22846;42.654;23.314;2023-10-31T03:40:36;94601.28;;;25.72;48.04
31337;BME280;22846;42.654;23.314;2023-10-31T03:43:01;94593.53;;;25.71;48.17
31337;BME280;22846;42.654;23.314;2023-10-31T03:45:26;94583.59;;;25.64;48.34
31337;BME280;22846;42.654;23.314;2023-10-31T03:47:52;94590.28;;;25.63;48.04
31337;BME280;22846;42.654;23.314;2023-10-31T03:50:17;94593.34;;;25.65;48.13
31337;BME280;22846;42.654;23.314;2023-10-31T03:52:42;94609.22;;;25.70;48.61
31337;BME280;22846;42.654;23.314;2023-10-31T03:55:08;94598.81;;;25.65;48.55
31337;BME280;22846;42.654;23.314;2023-10-31T03:57:33;94596.66;;;25.61;48.01
31337;BME280;22846;42.654;23.314;2023-10-31T03:59:59;94611.94;;;25.70;48.42
31337;BME280;22846;42.654;23.314;2023-10-31T04:02:25;94607.34;;;25.67;49.11
31337;BME280;22846;42.654;23.314;2023-10-31T04:04:50;94611.16;;;25.70;48.38
31337;BME280;22846;42.654;23.314;2023-10-31T04:07:16;94598.94;;;25.62;48.01
31337;BME280;22846;42.654;23.314;2023-10-31T04:09:41;94601.22;;;25.63;48.55
31337;BME280;22846;42.654;23.314;2023-10-31T04:12:08;94605.19;;;25.62;48.48
31337;BME280;22846;42.654;23.314;2023-10-31T04:14:34;94606.72;;;25.63;48.98
31337;BME280;22846;42.654;23.314;2023-10-31T04:16:59;94601.22;;;25.63;48.48
31337;BME280;22846;42.654;23.314;2023-10-31T04:19:25;94601.09;;;25.67;48.14
31337;BME280;22846;42.654;23.314;2023-10-31T04:21:51;94583.53;;;25.56;48.86
31337;BME280;22846;42.654;23.314;2023-10-31T04:24:17;94588.00;;;25.62;48.63
31337;BME280;22846;42.654;23.314;2023-10-31T04:26:42;94605.81;;;25.66;47.56
31337;BME280;22846;42.654;23.314;2023-10-31T04:29:07;94585.13;;;25.65;48.08
31337;BME280;22846;42.654;23.314;2023-10-31T04:31:33;94580.25;;;25.61;48.91
31337;BME280;22846;42.654;23.314;2023-10-31T04:33:58;94581.78;;;25.62;48.65
31337;BME280;22846;42.654;23.314;2023-10-31T04:36:24;94591.81;;;25.64;48.68
31337;BME280;22846;42.654;23.314;2023-10-31T04:38:49;94586.66;;;25.66;49.39
31337;BME280;22846;42.654;23.314;2023-10-31T04:41:14;94582.53;;;25.62;48.97
31337;BME280;22846;42.654;23.314;2023-10-31T04:43:40;94583.41;;;25.59;48.97
31337;BME280;22846;42.654;23.314;2023-10-31T04:46:07;94578.72;;;25.60;49.17
31337;BME280;22846;42.654;23.314;2023-10-31T04:48:32;94594.88;;;25.66;49.09
31337;BME280;22846;42.654;23.314;2023-10-31T04:50:58;94591.06;;;25.64;48.80
31337;BME280;22846;42.654;23.314;2023-10-31T04:53:23;94597.28;;;25.64;48.69
31337;BME280;22846;42.654;23.314;2023-10-31T04:55:49;94615.69;;;25.64;48.68
31337;BME280;22846;42.654;23.314;2023-10-31T04:58:14;94610.34;;;25.61;48.98
31337;BME280;22846;42.654;23.314;2023-10-31T05:00:40;94616.91;;;25.63;48.70
31337;BME280;22846;42.654;23.314;2023-10-31T05:03:06;94614.91;;;25.63;48.35
31337;BME280;22846;42.654;23.314;2023-10-31T05:05:31;94605.00;;;25.57;48.38
31337;BME280;22846;42.654;23.314;2023-10-31T05:07:57;94610.22;;;25.64;49.12
31337;BME280;22846;42.654;23.314;2023-10-31T05:10:23;94606.50;;;25.58;48.33
31337;BME280;22846;42.654;23.314;2023-10-31T05:12:49;94612.19;;;25.63;48.59
31337;BME280;22846;42.654;23.314;2023-10-31T05:15:15;94608.50;;;25.58;48.76
31337;BME280;22846;42.654;23.314;2023-10-31T05:17:41;94613.38;;;25.62;49.13
31337;BME280;22846;42.654;23.314;2023-10-31T05:20:07;94616.91;;;25.63;48.79
31337;BME280;22846;42.654;23.314;2023-10-31T05:22:34;94617.66;;;25.63;48.23
31337;BME280;22846;42.654;23.314;2023-10-31T05:24:59;94614.72;;;25.58;48.69
31337;BME280;22846;42.654;23.314;2023-10-31T05:27:25;94627.06;;;25.62;48.83
31337;BME280;22846;42.654;23.314;2023-10-31T05:29:50;94604.69;;;25.55;48.98
31337;BME280;22846;42.654;23.314;2023-10-31T05:32:15;94620.72;;;25.65;48.40
31337;BME280;22846;42.654;23.314;2023-10-31T05:34:41;94618.44;;;25.64;48.17
31337;BME280;22846;42.654;23.314;2023-10-31T05:37:07;94621.50;;;25.66;47.87
31337;BME280;22846;42.654;23.314;2023-10-31T05:39:32;94628.59;;;25.63;48.88
31337;BME280;22846;42.654;23.314;2023-10-31T05:42:01;94620.09;;;25.62;48.68
31337;BME280;22846;42.654;23.314;2023-10-31T05:44:27;94623.78;;;25.67;48.37
31337;BME280;22846;42.654;23.314;2023-10-31T05:46:52;94614.78;;;25.67;47.92
31337;BME280;22846;42.654;23.314;2023-10-31T05:49:17;94607.22;;;25.71;47.72
31337;BME280;22846;42.654;23.314;2023-10-31T05:51:44;94618.19;;;25.71;47.81
31337;BME280;22846;42.654;23.314;2023-10-31T05:54:10;94625.94;;;25.72;47.64
31337;BME280;22846;42.654;23.314;2023-10-31T05:56:35;94623.66;;;25.71;47.50
31337;BME280;22846;42.654;23.314;2023-10-31T05:59:00;94635.47;;;25.68;47.77
31337;BME280;22846;42.654;23.314;2023-10-31T06:01:26;94646.16;;;25.75;47.12
31337;BME280;22846;42.654;23.314;2023-10-31T06:03:51;94643.13;;;25.73;47.18
31337;BME280;22846;42.654;23.314;2023-10-31T06:06:16;94656.59;;;25.80;47.68
31337;BME280;22846;42.654;23.314;2023-10-31T06:08:42;94649.72;;;25.75;47.59
31337;BME280;22846;42.654;23.314;2023-10-31T06:11:08;94651.44;;;25.82;47.34
31337;BME280;22846;42.654;23.314;2023-10-31T06:13:33;94660.41;;;25.82;47.15
31337;BME280;22846;42.654;23.314;2023-10-31T06:16:00;94666.22;;;25.84;47.44
31337;BME280;22846;42.654;23.314;2023-10-31T06:18:26;94668.16;;;25.84;47.50
31337;BME280;22846;42.654;23.314;2023-10-31T06:20:52;94647.81;;;25.85;47.29
31337;BME280;22846;42.654;23.314;2023-10-31T06:23:18;94642.78;;;25.83;47.34
31337;BME280;22846;42.654;23.314;2023-10-31T06:25:43;94626.72;;;25.73;47.60
31337;BME280;22846;42.654;23.314;2023-10-31T06:28:08;94651.50;;;25.91;47.26
31337;BME280;22846;42.654;23.314;2023-10-31T06:30:34;94648.91;;;25.87;47.09
31337;BME280;22846;42.654;23.314;2023-10-31T06:32:59;94661.34;;;25.88;47.49
31337;BME280;22846;42.654;23.314;2023-10-31T06:35:25;94663.53;;;25.93;47.38
31337;BME280;22846;42.654;23.314;2023-10-31T06:37:54;94658.81;;;25.94;47.39
31337;BME280;22846;42.654;23.314;2023-10-31T06:40:19;94657.00;;;25.91;47.37
31337;BME280;22846;42.654;23.314;2023-10-31T06:42:45;94659.91;;;25.96;47.28
31337;BME280;22846;42.654;23.314;2023-10-31T06:45:10;94653.22;;;25.97;47.34
31337;BME280;22846;42.654;23.314;2023-10-31T06:47:35;94648.50;;;25.98;47.50
31337;BME280;22846;42.654;23.314;2023-10-31T06:50:01;94643.59;;;25.93;47.47
31337;BME280;22846;42.654;23.314;2023-10-31T06:52:26;94641.97;;;25.95;47.29
31337;BME280;22846;42.654;23.314;2023-10-31T06:54:52;94640.28;;;25.98;47.07
31337;BME280;22846;42.654;23.314;2023-10-31T06:57:17;94644.69;;;25.95;47.13
31337;BME280;22846;42.654;23.314;2023-10-31T06:59:42;94629.91;;;25.93;47.34
31337;BME280;22846;42.654;23.314;2023-10-31T07:02:08;94649.47;;;26.04;47.36
31337;BME280;22846;42.654;23.314;2023-10-31T07:04:34;94654.47;;;26.05;47.35
31337;BME280;22846;42.654;23.314;2023-10-31T07:06:59;94647.50;;;26.04;47.17
31337;BME280;22846;42.654;23.314;2023-10-31T07:09:26;94638.50;;;26.04;47.04
31337;BME280;22846;42.654;23.314;2023-10-31T07:11:51;94647.78;;;26.06;47.29
31337;BME280;22846;42.654;23.314;2023-10-31T07:14:17;94646.91;;;26.09;47.11
31337;BME280;22846;42.654;23.314;2023-10-31T07:16:42;94638.03;;;26.05;47.20
31337;BME280;22846;42.654;23.314;2023-10-31T07:19:11;94627.53;;;26.04;47.17
31337;BME280;22846;42.654;23.314;2023-10-31T07:21:36;94640.34;;;26.07;47.35
31337;BME280;22846;42.654;23.314;2023-10-31T07:24:02;94642.06;;;26.13;47.39
31337;BME280;22846;42.654;23.314;2023-10-31T07:26:27;94644.03;;;26.13;47.60
31337;BME280;22846;42.654;23.314;2023-10-31T07:28:53;94632.75;;;26.11;47.30
31337;BME280;22846;42.654;23.314;2023-10-31T07:31:18;94626.53;;;26.10;47.47
31337;BME280;22846;42.654;23.314;2023-10-31T07:33:47;94642.38;;;26.15;47.38
31337;BME280;22846;42.654;23.314;2023-10-31T07:36:13;94627.72;;;26.09;47.42
31337;BME280;22846;42.654;23.314;2023-10-31T07:38:38;94629.88;;;26.14;47.30
31337;BME280;22846;42.654;23.314;2023-10-31T07:41:03;94621.38;;;26.12;47.29
31337;BME280;22846;42.654;23.314;2023-10-31T07:43:29;94617.72;;;26.15;47.47
31337;BME280;22846;42.654;23.314;2023-10-31T07:45:54;94617.16;;;26.20;47.48
31337;BME280;22846;42.654;23.314;2023-10-31T07:48:20;94615.63;;;26.19;47.26
31337;BME280;22846;42.654;23.314;2023-10-31T07:50:45;94621.41;;;26.21;47.42
31337;BME280;22846;42.654;23.314;2023-10-31T07:53:11;94595.06;;;26.15;47.57
31337;BME280;22846;42.654;23.314;2023-10-31T07:55:36;94609.53;;;26.24;47.36
31337;BME280;22846;42.654;23.314;2023-10-31T07:58:02;94608.34;;;26.25;47.39
31337;BME280;22846;42.654;23.314;2023-10-31T08:00:27;94597.50;;;26.22;47.36
31337;BME280;22846;42.654;23.314;2023-10-31T08:02:52;94599.66;;;26.27;47.46
31337;BME280;22846;42.654;23.314;2023-10-31T08:05:18;94593.75;;;26.28;47.45
31337;BME280;22846;42.654;23.314;2023-10-31T08:07:43;94591.00;;;26.28;47.20
31337;BME280;22846;42.654;23.314;2023-10-31T08:10:09;94589.00;;;26.29;47.57
31337;BME280;22846;42.654;23.314;2023-10-31T08:12:35;94594.06;;;26.30;47.37
31337;BME280;22846;42.654;23.314;2023-10-31T08:15:01;94588.59;;;26.30;47.20
31337;BME280;22846;42.654;23.314;2023-10-31T08:17:26;94582.47;;;26.26;47.36
31337;BME280;22846;42.654;23.314;2023-10-31T08:19:51;94578.53;;;26.27;47.16
31337;BME280;22846;42.654;23.314;2023-10-31T08:22:17;94561.91;;;26.22;47.35
31337;BME280;22846;42.654;23.314;2023-10-31T08:24:42;94582.97;;;26.34;47.61
31337;BME280;22846;42.654;23.314;2023-10-31T08:27:08;94567.88;;;26.29;47.53
31337;BME280;22846;42.654;23.314;2023-10-31T08:29:33;94564.22;;;26.32;47.29
31337;BME280;22846;42.654;23.314;2023-10-31T08:31:59;94556.31;;;26.34;47.42
31337;BME280;22846;42.654;23.314;2023-10-31T08:34:24;94541.69;;;26.28;47.46
31337;BME280;22846;42.654;23.314;2023-10-31T08:36:49;94546.56;;;26.33;47.13
31337;BME280;22846;42.654;23.314;2023-10-31T08:39:15;94539.56;;;26.32;47.11
31337;BME280;22846;42.654;23.314;2023-10-31T08:41:54;94542.06;;;26.39;47.33
31337;BME280;22846;42.654;23.314;2023-10-31T08:44:20;94548.31;;;26.40;47.18
31337;BME280;22846;42.654;23.314;2023-10-31T08:46:45;94538.97;;;26.37;47.53
31337;BME280;22846;42.654;23.314;2023-10-31T08:49:12;94535.66;;;26.42;47.53
31337;BME280;22846;42.654;23.314;2023-10-31T08:51:38;94527.56;;;26.39;47.99
31337;BME280;22846;42.654;23.314;2023-10-31T08:54:03;94516.16;;;26.40;47.70
31337;BME280;22846;42.654;23.314;2023-10-31T08:56:29;94513.44;;;26.40;47.87
31337;BME280;22846;42.654;23.314;2023-10-31T08:58:55;94516.50;;;26.42;47.93
31337;BME280;22846;42.654;23.314;2023-10-31T09:01:20;94505.63;;;26.39;47.04
31337;BME280;22846;42.654;23.314;2023-10-31T09:03:46;94505.53;;;26.42;47.06
31337;BME280;22846;42.654;23.314;2023-10-31T09:06:11;94499.72;;;26.40;47.08
31337;BME280;22846;42.654;23.314;2023-10-31T09:08:37;94499.59;;;26.44;46.05
31337;BME280;22846;42.654;23.314;2023-10-31T09:11:04;94486.47;;;26.39;45.71
31337;BME280;22846;42.654;23.314;2023-10-31T09:13:29;94476.59;;;26.41;46.57
31337;BME280;22846;42.654;23.314;2023-10-31T09:15:57;94488.50;;;26.47;46.59
31337;BME280;22846;42.654;23.314;2023-10-31T09:18:22;94481.81;;;26.48;46.57
31337;BME280;22846;42.654;23.314;2023-10-31T09:20:47;94476.59;;;26.50;47.06
31337;BME280;22846;42.654;23.314;2023-10-31T09:23:13;94466.56;;;26.47;46.99
31337;BME280;22846;42.654;23.314;2023-10-31T09:25:38;94471.44;;;26.52;46.92
31337;BME280;22846;42.654;23.314;2023-10-31T09:28:04;94463.22;;;26.52;46.96
31337;BME280;22846;42.654;23.314;2023-10-31T09:30:30;94463.53;;;26.54;47.21
31337;BME280;22846;42.654;23.314;2023-10-31T09:32:55;94452.56;;;26.54;47.25
31337;BME280;22846;42.654;23.314;2023-10-31T09:35:20;94454.53;;;26.53;47.22
31337;BME280;22846;42.654;23.314;2023-10-31T09:37:46;94444.03;;;26.52;47.35
31337;BME280;22846;42.654;23.314;2023-10-31T09:40:14;94433.53;;;26.50;47.48
31337;BME280;22846;42.654;23.314;2023-10-31T09:42:40;94439.94;;;26.56;47.41
31337;BME280;22846;42.654;23.314;2023-10-31T09:45:06;94424.09;;;26.51;47.53
31337;BME280;22846;42.654;23.314;2023-10-31T09:47:31;94422.75;;;26.56;47.44
31337;BME280;22846;42.654;23.314;2023-10-31T09:49:58;94424.84;;;26.52;47.36
31337;BME280;22846;42.654;23.314;2023-10-31T09:52:23;94426.97;;;26.57;47.62
31337;BME280;22846;42.654;23.314;2023-10-31T09:54:51;94400.66;;;26.50;47.60
31337;BME280;22846;42.654;23.314;2023-10-31T09:57:17;94414.78;;;26.58;47.54
31337;BME280;22846;42.654;23.314;2023-10-31T09:59:43;94405.81;;;26.57;47.39
31337;BME280;22846;42.654;23.314;2023-10-31T10:02:08;94402.94;;;26.61;47.49
31337;BME280;22846;42.654;23.314;2023-10-31T10:04:34;94398.66;;;26.60;47.31
31337;BME280;22846;42.654;23.314;2023-10-31T10:07:00;94386.16;;;26.59;47.59
31337;BME280;22846;42.654;23.314;2023-10-31T10:09:27;94378.56;;;26.63;47.56
31337;BME280;22846;42.654;23.314;2023-10-31T10:11:53;94369.13;;;26.64;47.50
31337;BME280;22846;42.654;23.314;2023-10-31T10:14:20;94379.63;;;26.65;47.33
31337;BME280;22846;42.654;23.314;2023-10-31T10:16:45;94368.81;;;26.62;47.52
31337;BME280;22846;42.654;23.314;2023-10-31T10:19:21;94359.22;;;26.66;47.61
31337;BME280;22846;42.654;23.314;2023-10-31T10:21:53;94363.94;;;26.66;47.52
31337;BME280;22846;42.654;23.314;2023-10-31T10:24:19;94361.50;;;26.68;47.69
31337;BME280;22846;42.654;23.314;2023-10-31T10:26:45;94351.31;;;26.68;47.48
31337;BME280;22846;42.654;23.314;2023-10-31T10:29:11;94360.28;;;26.69;47.33
31337;BME280;22846;42.654;23.314;2023-10-31T10:31:37;94357.53;;;26.69;47.47
31337;BME280;22846;42.654;23.314;2023-10-31T10:34:02;94356.78;;;26.68;47.63
31337;BME280;22846;42.654;23.314;2023-10-31T10:36:27;94353.59;;;26.70;47.36
31337;BME280;22846;42.654;23.314;2023-10-31T10:38:56;94330.59;;;26.58;47.64
31337;BME280;22846;42.654;23.314;2023-10-31T10:41:25;94345.38;;;26.70;47.33
31337;BME280;22846;42.654;23.314;2023-10-31T10:43:55;94332.13;;;26.68;47.52
31337;BME280;22846;42.654;23.314;2023-10-31T10:46:26;94326.91;;;26.70;47.39
31337;BME280;22846;42.654;23.314;2023-10-31T10:48:55;94305.47;;;26.69;47.18
31337;BME280;22846;42.654;23.314;2023-10-31T10:51:32;94306.09;;;26.64;46.67
31337;BME280;22846;42.654;23.314;2023-10-31T10:54:08;94312.00;;;26.71;46.29
31337;BME280;22846;42.654;23.314;2023-10-31T10:56:39;94296.00;;;26.70;47.01
31337;BME280;22846;42.654;23.314;2023-10-31T10:59:18;94295.72;;;26.68;46.69
31337;BME280;22846;42.654;23.314;2023-10-31T11:01:46;94268.31;;;26.59;45.71
31337;BME280;22846;42.654;23.314;2023-10-31T11:04:12;94288.53;;;26.70;45.44
31337;BME280;22846;42.654;23.314;2023-10-31T11:06:38;94274.56;;;26.59;45.74
31337;BME280;22846;42.654;23.314;2023-10-31T11:09:04;94281.25;;;26.67;45.49
31337;BME280;22846;42.654;23.314;2023-10-31T11:11:32;94277.47;;;26.65;45.42
31337;BME280;22846;42.654;23.314;2023-10-31T11:13:58;94284.75;;;26.68;45.10
31337;BME280;22846;42.654;23.314;2023-10-31T11:16:38;94279.88;;;26.72;45.22
31337;BME280;22846;42.654;23.314;2023-10-31T11:19:06;94253.38;;;26.60;45.34
31337;BME280;22846;42.654;23.314;2023-10-31T11:21:34;94268.59;;;26.70;45.57
31337;BME280;22846;42.654;23.314;2023-10-31T11:24:00;94265.38;;;26.71;45.13
31337;BME280;22846;42.654;23.314;2023-10-31T11:26:27;94257.81;;;26.66;45.05
31337;BME280;22846;42.654;23.314;2023-10-31T11:29:03;94254.59;;;26.68;44.85
31337;BME280;22846;42.654;23.314;2023-10-31T11:31:47;94243.31;;;26.66;44.74
31337;BME280;22846;42.654;23.314;2023-10-31T11:34:16;94244.25;;;26.63;44.71
31337;BME280;22846;42.654;23.314;2023-10-31T11:36:41;94244.84;;;26.67;44.73
31337;BME280;22846;42.654;23.314;2023-10-31T11:39:20;94237.25;;;26.62;44.88
31337;BME280;22846;42.654;23.314;2023-10-31T11:41:54;94222.94;;;26.58;40.99
31337;BME280;22846;42.654;23.314;2023-10-31T11:44:22;94214.44;;;26.56;43.36
31337;BME280;22846;42.654;23.314;2023-10-31T11:46:52;94220.50;;;26.60;42.24
31337;BME280;22846;42.654;23.314;2023-10-31T11:49:53;94224.47;;;26.59;42.74
31337;BME280;22846;42.654;23.314;2023-10-31T11:52:19;94215.19;;;26.56;43.05
31337;BME280;22846;42.654;23.314;2023-10-31T11:54:44;94203.47;;;26.56;43.45
31337;BME280;22846;42.654;23.314;2023-10-31T11:57:10;94206.03;;;26.59;43.82
31337;BME280;22846;42.654;23.314;2023-10-31T11:59:37;94202.66;;;26.64;44.17
31337;BME280;22846;42.654;23.314;2023-10-31T12:02:13;94195.81;;;26.60;44.05
31337;BME280;22846;42.654;23.314;2023-10-31T12:04:39;94196.59;;;26.60;44.22
31337;BME280;22846;42.654;23.314;2023-10-31T12:07:04;94200.09;;;26.61;36.74
31337;BME280;22846;42.654;23.314;2023-10-31T12:09:30;94189.47;;;26.54;33.94
31337;BME280;22846;42.654;23.314;2023-10-31T12:11:56;94189.63;;;26.50;32.65
31337;BME280;22846;42.654;23.314;2023-10-31T12:14:22;94182.31;;;26.39;31.56
31337;BME280;22846;42.654;23.314;2023-10-31T12:16:48;94178.53;;;26.27;29.43
31337;BME280;22846;42.654;23.314;2023-10-31T12:19:13;94180.22;;;26.25;29.40
31337;BME280;22846;42.654;23.314;2023-10-31T12:21:43;94175.34;;;26.20;29.48
31337;BME280;22846;42.654;23.314;2023-10-31T12:24:13;94187.06;;;26.20;30.43
31337;BME280;22846;42.654;23.314;2023-10-31T12:26:40;94183.41;;;26.14;29.99
31337;BME280;22846;42.654;23.314;2023-10-31T12:29:12;94180.69;;;26.14;29.96
31337;BME280;22846;42.654;23.314;2023-10-31T12:32:04;94185.72;;;26.16;33.93
31337;BME280;22846;42.654;23.314;2023-10-31T12:34:30;94158.75;;;26.14;37.33
31337;BME280;22846;42.654;23.314;2023-10-31T12:36:55;94160.00;;;26.22;35.58
31337;BME280;22846;42.654;23.314;2023-10-31T12:39:25;94150.84;;;26.25;35.16
31337;BME280;22846;42.654;23.314;2023-10-31T12:41:51;94144.88;;;26.27;33.73
31337;BME280;22846;42.654;23.314;2023-10-31T12:44:23;94133.34;;;26.23;36.43
31337;BME280;22846;42.654;23.314;2023-10-31T12:46:49;94139.28;;;26.30;34.64